sim
Sign-in with your pilot id or email,
or register
Callsign
Passwort

Schedule Details

Flight Number: RYR7777 (1)
Departure: Chania International Airport (LGSA) at 12:50
Arrival: Thessaloniki International Airport (LGTS) at 14:10
Route: Ryanair Passenger Schedule. Enter filed route here before submitting Pirep.

Weather Information
Getting current METAR information for LGSA 230550Z 31004KT 9999 FEW025 26/22 Q1013
Getting current METAR information for LGTS 230550Z VRB02KT CAVOK 27/18 Q1019 NOSIG

Schedule Frequency

Route Map